createdAt,value
2022-12-23T00:02:34.053Z,176.50
2022-12-23T00:05:39.517Z,162.55
2022-12-23T00:08:42.798Z,178.05
2022-12-23T00:12:05.251Z,161.02
2022-12-23T00:15:07.908Z,151.13
2022-12-23T00:18:10.073Z,151.13
2022-12-23T00:21:14.268Z,162.77
2022-12-23T00:24:16.619Z,144.05
2022-12-23T00:27:18.833Z,132.87
2022-12-23T00:30:21.159Z,139.63
2022-12-23T00:33:26.619Z,137.70
2022-12-23T00:36:30.216Z,128.10
2022-12-23T00:39:54.908Z,133.45
2022-12-23T00:42:57.807Z,122.75
2022-12-23T00:46:00.170Z,121.10
2022-12-23T00:49:20.774Z,112.57
2022-12-23T00:52:23.026Z,118.55
2022-12-23T00:55:25.236Z,112.82
2022-12-23T00:58:27.512Z,108.47
2022-12-23T01:01:48.481Z,115.00
2022-12-23T01:05:09.283Z,118.00
2022-12-23T01:08:11.891Z,118.38
2022-12-23T01:11:14.151Z,108.43
2022-12-23T01:14:17.794Z,105.43
2022-12-23T01:17:20.045Z,103.43
2022-12-23T01:20:22.599Z,112.53
2022-12-23T01:23:24.788Z,98.75
2022-12-23T01:26:27.247Z,109.93
2022-12-23T01:29:29.968Z,111.57
2022-12-23T01:32:32.267Z,106.43
2022-12-23T01:35:34.726Z,121.03
2022-12-23T01:38:36.944Z,109.18
2022-12-23T01:41:57.628Z,102.18
2022-12-23T01:45:19.798Z,107.45
2022-12-23T01:48:24.524Z,113.30
2022-12-23T01:51:28.805Z,102.18
2022-12-23T01:54:31.097Z,114.20
2022-12-23T01:57:34.141Z,112.05
2022-12-23T02:00:58.588Z,105.87
2022-12-23T02:04:02.988Z,103.77
2022-12-23T02:07:23.646Z,112.20
2022-12-23T02:10:28.644Z,119.32
2022-12-23T02:13:34.334Z,114.38
2022-12-23T02:16:40.591Z,115.63
2022-12-23T02:19:42.818Z,128.67
2022-12-23T02:23:17.732Z,124.30
2022-12-23T02:26:38.736Z,134.13
2022-12-23T02:29:59.713Z,147.23
2022-12-23T02:33:09.727Z,153.00
2022-12-23T02:36:41.242Z,148.10
2022-12-23T02:40:01.747Z,148.82
2022-12-23T02:43:12.702Z,155.57
2022-12-23T02:46:31.031Z,153.43
2022-12-23T02:49:39.619Z,147.40
2022-12-23T02:52:44.363Z,154.50
2022-12-23T02:55:48.396Z,170.27
2022-12-23T02:58:56.457Z,174.02
2022-12-23T03:01:59.218Z,165.43
2022-12-23T03:05:01.537Z,163.07
2022-12-23T03:08:04.910Z,189.33
2022-12-23T03:11:16.839Z,200.05
2022-12-23T03:14:25.899Z,183.43
2022-12-23T03:17:46.456Z,208.43
2022-12-23T03:20:54.674Z,177.83
2022-12-23T03:24:01.376Z,175.47
2022-12-23T03:27:13.063Z,157.15
2022-12-23T03:30:16.946Z,142.38
2022-12-23T03:33:31.665Z,146.93
2022-12-23T03:36:40.126Z,155.57
2022-12-23T03:39:45.822Z,163.03
2022-12-23T03:42:50.567Z,174.02
2022-12-23T03:45:55.473Z,182.00
2022-12-23T03:49:00.785Z,221.07
2022-12-23T03:52:08.124Z,183.05
2022-12-23T03:55:14.659Z,160.90
2022-12-23T03:58:37.077Z,214.50
2022-12-23T04:02:02.800Z,206.30
2022-12-23T04:05:11.569Z,184.00
2022-12-23T04:08:20.057Z,196.07
2022-12-23T04:11:22.282Z,176.77
2022-12-23T04:14:24.527Z,192.30
2022-12-23T04:17:26.753Z,224.63
2022-12-23T04:20:29.064Z,278.55
2022-12-23T04:23:31.307Z,209.98
2022-12-23T04:26:33.543Z,185.00
2022-12-23T04:29:35.794Z,215.40
2022-12-23T04:32:38.243Z,245.13
2022-12-23T04:35:40.828Z,245.00
2022-12-23T04:38:43.208Z,253.65
2022-12-23T04:41:45.650Z,244.83
2022-12-23T04:44:47.867Z,194.18
2022-12-23T04:47:50.025Z,240.27
2022-12-23T04:50:52.245Z,179.27
2022-12-23T04:53:54.560Z,147.93
2022-12-23T04:56:56.860Z,128.37
2022-12-23T04:59:59.224Z,122.47
2022-12-23T05:03:01.559Z,150.75
2022-12-23T05:06:04.521Z,115.03
2022-12-23T05:09:06.778Z,124.10
2022-12-23T05:12:09.184Z,140.77
2022-12-23T05:15:11.502Z,130.20
2022-12-23T05:18:13.817Z,128.82
2022-12-23T05:21:16.061Z,125.20
2022-12-23T05:24:18.302Z,142.77
2022-12-23T05:27:20.451Z,159.40
2022-12-23T05:30:22.648Z,121.95
2022-12-23T05:33:24.948Z,122.43
2022-12-23T05:36:27.175Z,151.52
2022-12-23T05:39:29.571Z,120.10
2022-12-23T05:42:31.807Z,125.13
2022-12-23T05:45:37.550Z,104.25
2022-12-23T05:48:39.757Z,92.97
2022-12-23T05:51:41.947Z,126.80
2022-12-23T05:54:44.115Z,116.30
2022-12-23T05:57:46.401Z,96.53
2022-12-23T06:00:50.089Z,114.50
2022-12-23T06:03:52.404Z,112.03
2022-12-23T06:06:54.784Z,95.78
2022-12-23T06:09:57.018Z,113.78
2022-12-23T06:12:59.224Z,124.43
2022-12-23T06:16:01.820Z,100.15
2022-12-23T06:19:04.101Z,117.53
2022-12-23T06:22:06.695Z,85.47
2022-12-23T06:25:09.120Z,95.97
2022-12-23T06:28:11.292Z,131.80
2022-12-23T06:31:13.605Z,127.20
2022-12-23T06:34:15.972Z,113.63
2022-12-23T06:37:18.239Z,99.00
2022-12-23T06:40:20.498Z,102.67
2022-12-23T06:43:22.684Z,86.37
2022-12-23T06:46:24.993Z,102.68
2022-12-23T06:49:27.276Z,99.05
2022-12-23T06:52:29.438Z,105.28
2022-12-23T06:55:32.520Z,120.17
2022-12-23T06:58:34.776Z,124.30
2022-12-23T07:01:37.159Z,135.65
2022-12-23T07:04:39.552Z,153.05
2022-12-23T07:07:41.806Z,100.15
2022-12-23T07:10:44.015Z,99.03
2022-12-23T07:13:46.520Z,101.03
2022-12-23T07:16:48.865Z,90.38
2022-12-23T07:19:51.112Z,95.70
2022-12-23T07:22:57.300Z,98.28
2022-12-23T07:25:59.551Z,101.27
2022-12-23T07:29:02.266Z,84.33
2022-12-23T07:32:04.706Z,93.15
2022-12-23T07:35:07.138Z,102.57
2022-12-23T07:38:09.839Z,107.10
2022-12-23T07:41:12.067Z,89.87
2022-12-23T07:44:14.411Z,96.30
2022-12-23T07:47:17.001Z,110.07
2022-12-23T07:50:19.223Z,131.65
2022-12-23T07:53:21.442Z,100.20
2022-12-23T07:56:23.974Z,77.57
2022-12-23T07:59:27.614Z,74.77
2022-12-23T08:02:30.017Z,75.32
2022-12-23T08:05:32.487Z,80.47
2022-12-23T08:08:35.130Z,69.25
2022-12-23T08:11:37.348Z,65.90
2022-12-23T08:14:39.569Z,77.50
2022-12-23T08:17:41.981Z,81.80
2022-12-23T08:20:44.192Z,98.30
2022-12-23T08:23:47.524Z,72.15
2022-12-23T08:26:49.966Z,95.78
2022-12-23T08:29:53.113Z,181.30
2022-12-23T08:32:55.389Z,130.95
2022-12-23T08:35:57.706Z,106.13
2022-12-23T08:39:01.290Z,147.80
2022-12-23T08:42:03.593Z,84.03
2022-12-23T08:45:05.946Z,106.40
2022-12-23T08:48:08.146Z,133.55
2022-12-23T08:51:12.412Z,74.50
2022-12-23T08:54:15.015Z,63.35
2022-12-23T08:57:17.237Z,65.00
2022-12-23T09:00:19.500Z,69.90
2022-12-23T09:03:21.888Z,76.88
2022-12-23T09:06:29.655Z,72.25
2022-12-23T09:09:32.002Z,83.78
2022-12-23T09:12:34.221Z,74.60
2022-12-23T09:15:40.352Z,90.80
2022-12-23T09:18:42.783Z,121.78
2022-12-23T09:21:44.988Z,85.95
2022-12-23T09:24:47.177Z,82.30
2022-12-23T09:27:49.382Z,65.15
2022-12-23T09:30:52.007Z,59.20
2022-12-23T09:33:54.572Z,63.00
2022-12-23T09:36:56.827Z,51.90
2022-12-23T09:39:59.079Z,56.72
2022-12-23T09:43:20.811Z,60.45
2022-12-23T09:46:24.110Z,53.83
2022-12-23T09:49:27.460Z,59.30
2022-12-23T09:52:46.260Z,50.58
2022-12-23T09:56:05.964Z,55.78
2022-12-23T09:59:23.421Z,56.45
2022-12-23T10:02:25.807Z,61.70
2022-12-23T10:05:50.431Z,69.82
2022-12-23T10:08:54.763Z,66.10
2022-12-23T10:11:57.280Z,56.30
2022-12-23T10:15:01.506Z,61.60
2022-12-23T10:18:07.303Z,58.23
2022-12-23T10:21:29.792Z,54.65
2022-12-23T10:24:38.675Z,69.03
2022-12-23T10:27:41.678Z,60.22
2022-12-23T10:34:14.141Z,57.43
2022-12-23T10:37:22.542Z,52.13
2022-12-23T10:40:43.068Z,51.13
2022-12-23T10:43:57.780Z,58.95
2022-12-23T10:47:19.009Z,59.70
2022-12-23T10:50:29.537Z,61.03
2022-12-23T10:53:40.600Z,59.42
2022-12-23T10:56:44.372Z,60.03
2022-12-23T10:59:46.776Z,59.15
2022-12-23T11:03:10.800Z,63.15
2022-12-23T11:06:13.320Z,56.47
2022-12-23T11:09:23.694Z,60.40
2022-12-23T11:12:40.527Z,63.45
2022-12-23T11:15:44.555Z,59.20
2022-12-23T11:18:54.899Z,60.67
2022-12-23T11:21:58.549Z,61.37
2022-12-23T11:25:19.675Z,63.33
2022-12-23T11:28:22.270Z,61.17
2022-12-23T11:31:26.614Z,64.72
2022-12-23T11:34:31.568Z,58.25
2022-12-23T11:37:40.555Z,67.10
2022-12-23T11:40:47.060Z,60.40
2022-12-23T11:44:00.692Z,64.25
2022-12-23T11:47:21.717Z,65.10
2022-12-23T11:50:23.928Z,62.67
2022-12-23T11:53:27.678Z,65.70
2022-12-23T11:56:39.665Z,62.17
2022-12-23T11:59:43.698Z,63.75
2022-12-23T12:02:47.560Z,64.40
2022-12-23T12:05:56.014Z,64.65
2022-12-23T12:08:59.019Z,65.97
2022-12-23T12:12:04.494Z,64.85
2022-12-23T12:15:07.035Z,62.38
2022-12-23T12:18:11.808Z,67.22
2022-12-23T12:21:16.293Z,55.22
2022-12-23T12:24:19.737Z,68.50
2022-12-23T12:27:27.627Z,67.32
2022-12-23T12:30:39.682Z,66.43
2022-12-23T12:33:48.569Z,54.28
2022-12-23T12:36:56.344Z,62.75
2022-12-23T12:40:01.414Z,56.43
2022-12-23T12:43:11.907Z,57.83
2022-12-23T12:46:20.511Z,53.75
2022-12-23T12:49:26.744Z,55.10
2022-12-23T12:52:31.942Z,51.72
2022-12-23T12:55:36.565Z,64.17
2022-12-23T12:58:40.280Z,49.83
2022-12-23T13:02:01.979Z,57.50
2022-12-23T13:05:10.701Z,55.38
2022-12-23T13:08:15.946Z,53.58
2022-12-23T13:11:45.368Z,49.80
2022-12-23T13:14:53.931Z,49.85
2022-12-23T13:18:00.341Z,50.92
2022-12-23T13:21:13.791Z,46.35
2022-12-23T13:24:24.254Z,47.53
2022-12-23T13:27:30.428Z,47.90
2022-12-23T13:30:36.382Z,45.78
2022-12-23T13:33:42.142Z,52.20
2022-12-23T13:36:59.816Z,50.60
2022-12-23T13:40:08.127Z,52.25
2022-12-23T13:43:13.697Z,50.70
2022-12-23T13:46:25.895Z,57.38
2022-12-23T13:49:28.136Z,53.15
2022-12-23T13:52:37.532Z,54.58
2022-12-23T13:55:58.500Z,58.33
2022-12-23T13:59:00.930Z,56.27
2022-12-23T14:02:03.327Z,59.85
2022-12-23T14:05:09.257Z,54.33
2022-12-23T14:08:20.347Z,56.67
2022-12-23T14:11:27.351Z,58.88
2022-12-23T14:14:30.102Z,61.17
2022-12-23T14:17:45.396Z,66.30
2022-12-23T14:20:50.853Z,59.88
2022-12-23T14:24:15.164Z,58.47
2022-12-23T14:27:36.365Z,51.45
2022-12-23T14:30:45.857Z,63.00
2022-12-23T14:33:48.409Z,66.55
2022-12-23T14:37:09.131Z,64.50
2022-12-23T14:40:30.121Z,57.85
2022-12-23T14:43:33.910Z,65.65
2022-12-23T14:46:36.168Z,63.17
2022-12-23T14:49:43.608Z,67.57
2022-12-23T14:52:48.475Z,63.38
2022-12-23T14:55:51.570Z,64.97
2022-12-23T14:58:59.469Z,65.10
2022-12-23T15:02:02.807Z,60.77
2022-12-23T15:05:05.290Z,69.13
2022-12-23T15:08:27.741Z,67.60
2022-12-23T15:11:31.663Z,74.93
2022-12-23T15:14:33.927Z,74.68
2022-12-23T15:17:36.692Z,82.70
2022-12-23T15:20:38.919Z,90.50
2022-12-23T15:23:48.267Z,88.10
2022-12-23T15:27:17.854Z,77.97
2022-12-23T15:30:17.293Z,86.32
2022-12-23T15:36:47.417Z,90.43
2022-12-23T15:39:55.704Z,125.10
2022-12-23T15:43:03.368Z,103.45
2022-12-23T15:46:29.749Z,90.27
2022-12-23T15:49:32.539Z,97.83
2022-12-23T15:52:34.898Z,113.43
2022-12-23T15:55:40.408Z,99.88
2022-12-23T15:58:42.688Z,87.93
2022-12-23T16:01:45.196Z,84.90
2022-12-23T16:04:57.618Z,92.93
2022-12-23T16:08:21.750Z,78.07
2022-12-23T16:11:47.679Z,88.45
2022-12-23T16:14:54.180Z,75.18
2022-12-23T16:18:34.477Z,69.70
2022-12-23T16:21:37.159Z,77.50
2022-12-23T16:24:50.616Z,77.57
2022-12-23T16:28:12.155Z,71.90
2022-12-23T16:31:16.419Z,80.40
2022-12-23T16:34:18.866Z,72.38
2022-12-23T16:37:21.074Z,85.30
2022-12-23T16:40:24.633Z,68.10
2022-12-23T16:43:27.006Z,71.78
2022-12-23T16:46:34.084Z,78.53
2022-12-23T16:49:37.073Z,74.65
2022-12-23T16:52:39.797Z,69.10
2022-12-23T16:55:50.236Z,82.72
2022-12-23T16:58:54.834Z,73.05
2022-12-23T17:02:03.190Z,81.97
2022-12-23T17:05:08.148Z,88.32
2022-12-23T17:08:10.890Z,85.93
2022-12-23T17:11:19.147Z,84.53
2022-12-23T17:14:22.895Z,81.90
2022-12-23T17:17:26.108Z,93.25
2022-12-23T17:20:28.350Z,133.57
2022-12-23T17:23:32.637Z,88.30
2022-12-23T17:26:34.848Z,87.93
2022-12-23T17:29:37.090Z,85.90
2022-12-23T17:32:39.394Z,78.93
2022-12-23T17:35:41.772Z,113.75
2022-12-23T17:38:44.036Z,124.90
2022-12-23T17:41:46.548Z,119.13
2022-12-23T17:44:49.248Z,176.15
2022-12-23T17:47:51.736Z,105.60
2022-12-23T17:50:53.980Z,172.57
2022-12-23T17:53:58.231Z,182.90
2022-12-23T17:57:00.595Z,170.40
2022-12-23T18:00:03.107Z,154.35
2022-12-23T18:03:22.322Z,130.90
2022-12-23T18:06:25.419Z,106.07
2022-12-23T18:09:27.744Z,168.87
2022-12-23T18:12:32.960Z,148.63
2022-12-23T18:15:36.422Z,177.60
2022-12-23T18:18:46.160Z,173.13
2022-12-23T18:21:49.303Z,135.68
2022-12-23T18:24:56.994Z,150.90
2022-12-23T18:28:01.289Z,138.00
2022-12-23T18:31:03.660Z,155.93
2022-12-23T18:34:06.030Z,139.93
2022-12-23T18:37:08.892Z,129.63
2022-12-23T18:40:11.362Z,163.23
2022-12-23T18:43:24.292Z,171.05
2022-12-23T18:46:26.662Z,181.25
2022-12-23T18:49:29.048Z,203.48
2022-12-23T18:52:31.395Z,199.35
2022-12-23T18:55:33.708Z,204.33
2022-12-23T18:58:35.966Z,140.93
2022-12-23T19:01:38.490Z,114.40
2022-12-23T19:04:40.749Z,138.85
2022-12-23T19:07:43.589Z,163.40
2022-12-23T19:10:46.635Z,125.57
2022-12-23T19:13:48.900Z,182.48
2022-12-23T19:16:52.584Z,167.13
2022-12-23T19:19:55.291Z,136.00
2022-12-23T19:22:57.518Z,152.40
2022-12-23T19:26:00.047Z,135.30
2022-12-23T19:29:02.370Z,118.28
2022-12-23T19:32:04.675Z,177.07
2022-12-23T19:35:07.146Z,144.80
2022-12-23T19:38:09.939Z,104.57
2022-12-23T19:41:12.203Z,125.17
2022-12-23T19:44:14.540Z,103.28
2022-12-23T19:47:16.798Z,125.70
2022-12-23T19:50:20.113Z,104.15
2022-12-23T19:53:22.358Z,103.93
2022-12-23T19:56:25.352Z,88.33
2022-12-23T19:59:27.738Z,101.68
2022-12-23T20:02:30.153Z,87.25
2022-12-23T20:05:32.479Z,88.65
2022-12-23T20:08:35.123Z,114.35
2022-12-23T20:11:47.191Z,130.97
2022-12-23T20:14:49.498Z,131.73
2022-12-23T20:17:51.846Z,112.70
2022-12-23T20:20:54.080Z,147.75
2022-12-23T20:23:56.543Z,162.63
2022-12-23T20:26:59.330Z,227.03
2022-12-23T20:30:01.589Z,164.43
2022-12-23T20:33:03.882Z,141.13
2022-12-23T20:36:06.709Z,135.68
2022-12-23T20:39:09.151Z,111.15
2022-12-23T20:42:11.409Z,92.73
2022-12-23T20:45:14.023Z,99.63
2022-12-23T20:48:18.200Z,130.30
2022-12-23T20:51:23.819Z,84.63
2022-12-23T20:54:32.182Z,116.07
2022-12-23T20:57:36.047Z,109.17
2022-12-23T21:00:38.272Z,98.03
2022-12-23T21:03:41.068Z,87.72
2022-12-23T21:06:43.974Z,97.63
2022-12-23T21:09:46.590Z,93.83
2022-12-23T21:12:49.020Z,90.27
2022-12-23T21:15:51.259Z,110.03
2022-12-23T21:18:53.675Z,108.60
2022-12-23T21:21:56.915Z,98.82
2022-12-23T21:24:59.191Z,97.43
2022-12-23T21:28:01.496Z,98.97
2022-12-23T21:31:04.103Z,86.15
2022-12-23T21:34:07.046Z,75.45
2022-12-23T21:37:09.267Z,87.63
2022-12-23T21:40:14.539Z,74.20
2022-12-23T21:43:16.799Z,76.50
2022-12-23T21:46:20.931Z,78.60
2022-12-23T21:49:23.371Z,88.25
2022-12-23T21:52:25.552Z,77.30
2022-12-23T21:55:28.029Z,76.10
2022-12-23T21:58:30.674Z,86.33
2022-12-23T22:01:33.423Z,76.70
2022-12-23T22:04:35.949Z,82.00
2022-12-23T22:07:38.300Z,88.28
2022-12-23T22:10:40.679Z,81.87
2022-12-23T22:13:42.986Z,82.57
2022-12-23T22:16:45.617Z,78.00
2022-12-23T22:19:48.022Z,75.72
2022-12-23T22:22:50.302Z,72.88
2022-12-23T22:25:55.986Z,67.57
2022-12-23T22:28:59.253Z,69.67
2022-12-23T22:32:01.464Z,74.88
2022-12-23T22:35:03.795Z,71.63
2022-12-23T22:38:06.050Z,78.20
2022-12-23T22:41:09.016Z,78.68
2022-12-23T22:44:13.513Z,78.87
2022-12-23T22:47:15.946Z,76.68
2022-12-23T22:50:18.208Z,77.45
2022-12-23T22:53:23.488Z,73.45
2022-12-23T22:56:30.123Z,77.50
2022-12-23T22:59:32.302Z,88.00
2022-12-23T23:02:34.633Z,84.53
2022-12-23T23:05:36.948Z,75.65
2022-12-23T23:08:41.556Z,68.18
2022-12-23T23:11:44.553Z,75.57
2022-12-23T23:14:52.541Z,75.57
2022-12-23T23:17:55.751Z,80.03
2022-12-23T23:20:58.315Z,88.63
2022-12-23T23:24:00.584Z,90.40
2022-12-23T23:27:02.833Z,83.93
2022-12-23T23:30:05.255Z,94.97
2022-12-23T23:33:08.445Z,88.15
2022-12-23T23:36:10.887Z,80.47
2022-12-23T23:39:13.206Z,82.57
2022-12-23T23:42:16.972Z,90.55
2022-12-23T23:45:19.271Z,91.07
2022-12-23T23:48:21.492Z,76.20
2022-12-23T23:51:23.678Z,88.72
2022-12-23T23:54:25.987Z,90.85
2022-12-23T23:57:28.514Z,85.55
